sensor_id;sensor_type;location;lat;lon;timestamp;P1;durP1;ratioP1;P2;durP2;ratioP2
14167;SDS011;7163;50.626;12.922;2022-12-17T00:04:53;95.83;;;34.10;;
14167;SDS011;7163;50.626;12.922;2022-12-17T00:10:12;115.93;;;37.33;;
14167;SDS011;7163;50.626;12.922;2022-12-17T00:15:31;112.03;;;35.57;;
14167;SDS011;7163;50.626;12.922;2022-12-17T00:20:54;101.07;;;35.57;;
14167;SDS011;7163;50.626;12.922;2022-12-17T00:26:14;112.87;;;39.50;;
14167;SDS011;7163;50.626;12.922;2022-12-17T00:31:33;122.67;;;38.20;;
14167;SDS011;7163;50.626;12.922;2022-12-17T00:36:52;127.40;;;39.70;;
14167;SDS011;7163;50.626;12.922;2022-12-17T00:42:11;96.10;;;34.73;;
14167;SDS011;7163;50.626;12.922;2022-12-17T00:47:29;97.60;;;34.07;;
14167;SDS011;7163;50.626;12.922;2022-12-17T00:52:51;99.57;;;34.47;;
14167;SDS011;7163;50.626;12.922;2022-12-17T00:58:11;109.13;;;33.87;;
14167;SDS011;7163;50.626;12.922;2022-12-17T01:03:29;105.97;;;35.00;;
14167;SDS011;7163;50.626;12.922;2022-12-17T01:08:50;100.03;;;34.90;;
14167;SDS011;7163;50.626;12.922;2022-12-17T01:14:09;93.07;;;34.03;;
14167;SDS011;7163;50.626;12.922;2022-12-17T01:19:28;100.80;;;33.50;;
14167;SDS011;7163;50.626;12.922;2022-12-17T01:24:47;95.20;;;33.03;;
14167;SDS011;7163;50.626;12.922;2022-12-17T01:30:06;84.77;;;29.43;;
14167;SDS011;7163;50.626;12.922;2022-12-17T01:35:25;84.87;;;31.03;;
14167;SDS011;7163;50.626;12.922;2022-12-17T01:40:50;68.50;;;28.33;;
14167;SDS011;7163;50.626;12.922;2022-12-17T01:46:10;99.07;;;33.00;;
14167;SDS011;7163;50.626;12.922;2022-12-17T01:51:32;102.37;;;35.97;;
14167;SDS011;7163;50.626;12.922;2022-12-17T01:56:52;116.67;;;38.90;;
14167;SDS011;7163;50.626;12.922;2022-12-17T02:02:10;133.47;;;41.97;;
14167;SDS011;7163;50.626;12.922;2022-12-17T02:13:09;103.70;;;39.53;;
14167;SDS011;7163;50.626;12.922;2022-12-17T02:18:35;98.00;;;37.97;;
14167;SDS011;7163;50.626;12.922;2022-12-17T02:29:32;103.10;;;34.10;;
14167;SDS011;7163;50.626;12.922;2022-12-17T02:34:55;88.33;;;33.47;;
14167;SDS011;7163;50.626;12.922;2022-12-17T02:40:15;78.07;;;31.13;;
14167;SDS011;7163;50.626;12.922;2022-12-17T02:45:37;87.77;;;29.43;;
14167;SDS011;7163;50.626;12.922;2022-12-17T02:50:56;81.50;;;31.00;;
14167;SDS011;7163;50.626;12.922;2022-12-17T02:56:15;82.03;;;29.87;;
14167;SDS011;7163;50.626;12.922;2022-12-17T03:01:34;100.83;;;34.33;;
14167;SDS011;7163;50.626;12.922;2022-12-17T03:06:53;99.23;;;34.60;;
14167;SDS011;7163;50.626;12.922;2022-12-17T03:12:12;85.37;;;32.00;;
14167;SDS011;7163;50.626;12.922;2022-12-17T03:17:50;75.23;;;29.93;;
14167;SDS011;7163;50.626;12.922;2022-12-17T03:23:10;80.80;;;30.93;;
14167;SDS011;7163;50.626;12.922;2022-12-17T03:28:29;85.20;;;32.30;;
14167;SDS011;7163;50.626;12.922;2022-12-17T03:33:48;69.80;;;30.33;;
14167;SDS011;7163;50.626;12.922;2022-12-17T03:39:07;69.33;;;29.47;;
14167;SDS011;7163;50.626;12.922;2022-12-17T03:44:26;62.97;;;28.00;;
14167;SDS011;7163;50.626;12.922;2022-12-17T03:49:45;55.90;;;25.27;;
14167;SDS011;7163;50.626;12.922;2022-12-17T03:55:04;66.13;;;28.37;;
14167;SDS011;7163;50.626;12.922;2022-12-17T04:00:24;55.10;;;23.70;;
14167;SDS011;7163;50.626;12.922;2022-12-17T04:05:43;58.17;;;24.67;;
14167;SDS011;7163;50.626;12.922;2022-12-17T04:11:02;57.13;;;27.13;;
14167;SDS011;7163;50.626;12.922;2022-12-17T04:16:21;48.57;;;24.23;;
14167;SDS011;7163;50.626;12.922;2022-12-17T04:21:40;46.10;;;23.47;;
14167;SDS011;7163;50.626;12.922;2022-12-17T04:26:59;45.90;;;23.27;;
14167;SDS011;7163;50.626;12.922;2022-12-17T04:32:17;47.80;;;22.13;;
14167;SDS011;7163;50.626;12.922;2022-12-17T04:37:36;37.43;;;19.73;;
14167;SDS011;7163;50.626;12.922;2022-12-17T04:42:55;40.90;;;22.50;;
14167;SDS011;7163;50.626;12.922;2022-12-17T04:48:14;44.53;;;21.90;;
14167;SDS011;7163;50.626;12.922;2022-12-17T04:53:33;45.53;;;21.97;;
14167;SDS011;7163;50.626;12.922;2022-12-17T04:58:54;66.53;;;28.67;;
14167;SDS011;7163;50.626;12.922;2022-12-17T05:04:13;59.33;;;27.50;;
14167;SDS011;7163;50.626;12.922;2022-12-17T05:09:32;59.50;;;27.20;;
14167;SDS011;7163;50.626;12.922;2022-12-17T05:14:52;63.57;;;28.57;;
14167;SDS011;7163;50.626;12.922;2022-12-17T05:20:11;68.33;;;28.30;;
14167;SDS011;7163;50.626;12.922;2022-12-17T05:25:30;68.60;;;30.10;;
14167;SDS011;7163;50.626;12.922;2022-12-17T05:30:50;62.87;;;28.10;;
14167;SDS011;7163;50.626;12.922;2022-12-17T05:36:09;47.07;;;23.93;;
14167;SDS011;7163;50.626;12.922;2022-12-17T05:41:29;63.87;;;28.23;;
14167;SDS011;7163;50.626;12.922;2022-12-17T05:46:48;62.80;;;29.07;;
14167;SDS011;7163;50.626;12.922;2022-12-17T05:52:07;53.47;;;24.60;;
14167;SDS011;7163;50.626;12.922;2022-12-17T05:57:26;52.47;;;24.97;;
14167;SDS011;7163;50.626;12.922;2022-12-17T06:02:44;57.73;;;25.00;;
14167;SDS011;7163;50.626;12.922;2022-12-17T06:08:04;52.73;;;25.23;;
14167;SDS011;7163;50.626;12.922;2022-12-17T06:13:24;61.53;;;25.43;;
14167;SDS011;7163;50.626;12.922;2022-12-17T06:18:43;64.07;;;27.63;;
14167;SDS011;7163;50.626;12.922;2022-12-17T06:24:02;63.83;;;28.93;;
14167;SDS011;7163;50.626;12.922;2022-12-17T06:29:21;62.93;;;30.07;;
14167;SDS011;7163;50.626;12.922;2022-12-17T06:34:40;72.17;;;31.40;;
14167;SDS011;7163;50.626;12.922;2022-12-17T06:39:59;71.13;;;29.40;;
14167;SDS011;7163;50.626;12.922;2022-12-17T06:45:18;64.30;;;27.83;;
14167;SDS011;7163;50.626;12.922;2022-12-17T06:50:37;60.57;;;27.37;;
14167;SDS011;7163;50.626;12.922;2022-12-17T06:55:57;58.80;;;26.83;;
14167;SDS011;7163;50.626;12.922;2022-12-17T07:01:19;60.10;;;25.13;;
14167;SDS011;7163;50.626;12.922;2022-12-17T07:06:38;69.40;;;28.50;;
14167;SDS011;7163;50.626;12.922;2022-12-17T07:11:57;58.23;;;25.53;;
14167;SDS011;7163;50.626;12.922;2022-12-17T07:17:15;67.60;;;28.20;;
14167;SDS011;7163;50.626;12.922;2022-12-17T07:22:34;61.17;;;25.50;;
14167;SDS011;7163;50.626;12.922;2022-12-17T07:27:53;62.83;;;25.07;;
14167;SDS011;7163;50.626;12.922;2022-12-17T07:33:15;60.03;;;25.27;;
14167;SDS011;7163;50.626;12.922;2022-12-17T07:38:34;65.07;;;26.00;;
14167;SDS011;7163;50.626;12.922;2022-12-17T07:43:53;59.80;;;22.63;;
14167;SDS011;7163;50.626;12.922;2022-12-17T07:49:12;54.80;;;22.73;;
14167;SDS011;7163;50.626;12.922;2022-12-17T07:54:31;59.47;;;23.63;;
14167;SDS011;7163;50.626;12.922;2022-12-17T07:59:50;53.50;;;23.20;;
14167;SDS011;7163;50.626;12.922;2022-12-17T08:05:10;51.83;;;22.70;;
14167;SDS011;7163;50.626;12.922;2022-12-17T08:10:28;61.17;;;25.93;;
14167;SDS011;7163;50.626;12.922;2022-12-17T08:15:51;56.13;;;22.60;;
14167;SDS011;7163;50.626;12.922;2022-12-17T08:21:10;66.20;;;26.50;;
14167;SDS011;7163;50.626;12.922;2022-12-17T08:26:30;75.53;;;25.20;;
14167;SDS011;7163;50.626;12.922;2022-12-17T08:31:48;65.83;;;25.73;;
14167;SDS011;7163;50.626;12.922;2022-12-17T08:37:07;79.10;;;28.70;;
14167;SDS011;7163;50.626;12.922;2022-12-17T08:42:29;75.37;;;27.60;;
14167;SDS011;7163;50.626;12.922;2022-12-17T08:47:48;100.40;;;38.00;;
14167;SDS011;7163;50.626;12.922;2022-12-17T08:53:07;70.80;;;27.40;;
14167;SDS011;7163;50.626;12.922;2022-12-17T08:58:29;68.13;;;27.87;;
14167;SDS011;7163;50.626;12.922;2022-12-17T09:03:48;56.83;;;22.97;;
14167;SDS011;7163;50.626;12.922;2022-12-17T09:09:07;52.33;;;23.23;;
14167;SDS011;7163;50.626;12.922;2022-12-17T09:14:26;59.40;;;22.60;;
14167;SDS011;7163;50.626;12.922;2022-12-17T09:19:45;47.27;;;19.23;;
14167;SDS011;7163;50.626;12.922;2022-12-17T09:25:05;51.30;;;20.40;;
14167;SDS011;7163;50.626;12.922;2022-12-17T09:30:24;44.63;;;20.63;;
14167;SDS011;7163;50.626;12.922;2022-12-17T09:35:43;48.47;;;19.83;;
14167;SDS011;7163;50.626;12.922;2022-12-17T09:41:12;46.87;;;21.00;;
14167;SDS011;7163;50.626;12.922;2022-12-17T09:46:37;46.70;;;19.27;;
14167;SDS011;7163;50.626;12.922;2022-12-17T09:51:59;47.80;;;19.53;;
14167;SDS011;7163;50.626;12.922;2022-12-17T09:57:22;56.80;;;20.20;;
14167;SDS011;7163;50.626;12.922;2022-12-17T10:02:43;53.53;;;21.77;;
14167;SDS011;7163;50.626;12.922;2022-12-17T10:08:04;54.13;;;23.07;;
14167;SDS011;7163;50.626;12.922;2022-12-17T10:13:23;50.73;;;22.17;;
14167;SDS011;7163;50.626;12.922;2022-12-17T10:18:42;47.80;;;19.37;;
14167;SDS011;7163;50.626;12.922;2022-12-17T10:24:06;41.13;;;17.63;;
14167;SDS011;7163;50.626;12.922;2022-12-17T10:29:25;63.40;;;28.10;;
14167;SDS011;7163;50.626;12.922;2022-12-17T10:34:45;48.60;;;21.00;;
14167;SDS011;7163;50.626;12.922;2022-12-17T10:40:13;53.67;;;23.63;;
14167;SDS011;7163;50.626;12.922;2022-12-17T10:45:36;47.97;;;23.10;;
14167;SDS011;7163;50.626;12.922;2022-12-17T10:50:55;39.50;;;17.97;;
14167;SDS011;7163;50.626;12.922;2022-12-17T10:56:24;35.40;;;15.97;;
14167;SDS011;7163;50.626;12.922;2022-12-17T11:01:44;30.37;;;16.50;;
14167;SDS011;7163;50.626;12.922;2022-12-17T11:07:03;30.23;;;15.00;;
14167;SDS011;7163;50.626;12.922;2022-12-17T11:12:24;34.50;;;16.77;;
14167;SDS011;7163;50.626;12.922;2022-12-17T11:17:46;25.50;;;13.07;;
14167;SDS011;7163;50.626;12.922;2022-12-17T11:23:07;22.43;;;12.27;;
14167;SDS011;7163;50.626;12.922;2022-12-17T11:28:33;22.30;;;12.30;;
14167;SDS011;7163;50.626;12.922;2022-12-17T11:34:18;24.20;;;12.53;;
14167;SDS011;7163;50.626;12.922;2022-12-17T11:39:44;21.23;;;11.40;;
14167;SDS011;7163;50.626;12.922;2022-12-17T11:45:12;17.70;;;11.83;;
14167;SDS011;7163;50.626;12.922;2022-12-17T11:50:58;19.70;;;10.60;;
14167;SDS011;7163;50.626;12.922;2022-12-17T11:56:25;21.57;;;10.60;;
14167;SDS011;7163;50.626;12.922;2022-12-17T12:13:13;15.00;;;9.90;;
14167;SDS011;7163;50.626;12.922;2022-12-17T12:24:45;21.37;;;13.07;;
14167;SDS011;7163;50.626;12.922;2022-12-17T12:30:21;16.33;;;11.43;;
14167;SDS011;7163;50.626;12.922;2022-12-17T12:35:45;24.63;;;15.50;;
14167;SDS011;7163;50.626;12.922;2022-12-17T12:46:59;30.47;;;16.27;;
14167;SDS011;7163;50.626;12.922;2022-12-17T12:52:23;41.77;;;21.57;;
14167;SDS011;7163;50.626;12.922;2022-12-17T12:57:54;49.83;;;24.13;;
14167;SDS011;7163;50.626;12.922;2022-12-17T13:09:03;35.23;;;19.87;;
14167;SDS011;7163;50.626;12.922;2022-12-17T13:14:20;44.27;;;26.10;;
14167;SDS011;7163;50.626;12.922;2022-12-17T13:24:30;53.27;;;28.50;;
14167;SDS011;7163;50.626;12.922;2022-12-17T13:29:31;38.57;;;23.33;;
14167;SDS011;7163;50.626;12.922;2022-12-17T13:45:18;46.93;;;26.63;;
14167;SDS011;7163;50.626;12.922;2022-12-17T13:50:23;35.93;;;20.93;;
14167;SDS011;7163;50.626;12.922;2022-12-17T13:55:26;31.40;;;17.13;;
14167;SDS011;7163;50.626;12.922;2022-12-17T14:00:29;38.53;;;17.87;;
14167;SDS011;7163;50.626;12.922;2022-12-17T14:05:35;32.43;;;16.23;;
14167;SDS011;7163;50.626;12.922;2022-12-17T14:10:46;41.97;;;23.70;;
14167;SDS011;7163;50.626;12.922;2022-12-17T14:15:52;43.40;;;18.63;;
14167;SDS011;7163;50.626;12.922;2022-12-17T14:20:53;39.77;;;21.73;;
14167;SDS011;7163;50.626;12.922;2022-12-17T14:25:54;37.70;;;20.03;;
14167;SDS011;7163;50.626;12.922;2022-12-17T14:36:19;35.83;;;17.53;;
14167;SDS011;7163;50.626;12.922;2022-12-17T14:41:21;33.00;;;17.60;;
14167;SDS011;7163;50.626;12.922;2022-12-17T14:46:40;31.03;;;16.43;;
14167;SDS011;7163;50.626;12.922;2022-12-17T14:51:41;34.67;;;17.20;;
14167;SDS011;7163;50.626;12.922;2022-12-17T14:56:43;31.77;;;16.73;;
14167;SDS011;7163;50.626;12.922;2022-12-17T15:01:46;32.73;;;15.20;;
14167;SDS011;7163;50.626;12.922;2022-12-17T15:06:47;56.07;;;32.10;;
14167;SDS011;7163;50.626;12.922;2022-12-17T15:11:48;28.37;;;15.70;;
14167;SDS011;7163;50.626;12.922;2022-12-17T15:16:49;29.30;;;15.27;;
14167;SDS011;7163;50.626;12.922;2022-12-17T15:21:50;28.30;;;14.33;;
14167;SDS011;7163;50.626;12.922;2022-12-17T15:26:50;27.67;;;13.57;;
14167;SDS011;7163;50.626;12.922;2022-12-17T15:31:51;29.97;;;14.50;;
14167;SDS011;7163;50.626;12.922;2022-12-17T15:36:51;26.47;;;14.60;;
14167;SDS011;7163;50.626;12.922;2022-12-17T15:41:52;30.47;;;15.33;;
14167;SDS011;7163;50.626;12.922;2022-12-17T15:47:11;29.47;;;14.70;;
14167;SDS011;7163;50.626;12.922;2022-12-17T15:52:11;32.33;;;17.07;;
14167;SDS011;7163;50.626;12.922;2022-12-17T15:57:14;40.90;;;21.40;;
14167;SDS011;7163;50.626;12.922;2022-12-17T16:02:14;46.23;;;22.43;;
14167;SDS011;7163;50.626;12.922;2022-12-17T16:07:15;48.30;;;24.93;;
14167;SDS011;7163;50.626;12.922;2022-12-17T16:12:15;45.20;;;23.43;;
14167;SDS011;7163;50.626;12.922;2022-12-17T16:17:16;44.07;;;22.73;;
14167;SDS011;7163;50.626;12.922;2022-12-17T16:22:16;51.23;;;24.60;;
14167;SDS011;7163;50.626;12.922;2022-12-17T16:27:17;42.43;;;22.90;;
14167;SDS011;7163;50.626;12.922;2022-12-17T16:32:18;35.67;;;18.10;;
14167;SDS011;7163;50.626;12.922;2022-12-17T16:37:19;28.00;;;13.60;;
14167;SDS011;7163;50.626;12.922;2022-12-17T16:42:19;20.43;;;12.07;;
14167;SDS011;7163;50.626;12.922;2022-12-17T16:47:20;24.77;;;12.70;;
14167;SDS011;7163;50.626;12.922;2022-12-17T16:52:20;28.10;;;13.43;;
14167;SDS011;7163;50.626;12.922;2022-12-17T16:57:21;32.53;;;15.43;;
14167;SDS011;7163;50.626;12.922;2022-12-17T17:02:21;25.17;;;14.00;;
14167;SDS011;7163;50.626;12.922;2022-12-17T17:07:22;24.83;;;12.60;;
14167;SDS011;7163;50.626;12.922;2022-12-17T17:12:23;28.83;;;13.67;;
14167;SDS011;7163;50.626;12.922;2022-12-17T17:17:25;26.30;;;13.13;;
14167;SDS011;7163;50.626;12.922;2022-12-17T17:22:26;28.03;;;13.47;;
14167;SDS011;7163;50.626;12.922;2022-12-17T17:27:26;23.53;;;12.70;;
14167;SDS011;7163;50.626;12.922;2022-12-17T17:32:27;33.37;;;18.13;;
14167;SDS011;7163;50.626;12.922;2022-12-17T17:37:27;24.10;;;12.57;;
14167;SDS011;7163;50.626;12.922;2022-12-17T17:42:28;25.27;;;12.87;;
14167;SDS011;7163;50.626;12.922;2022-12-17T17:47:28;27.77;;;14.23;;
14167;SDS011;7163;50.626;12.922;2022-12-17T17:52:30;25.00;;;13.47;;
14167;SDS011;7163;50.626;12.922;2022-12-17T17:57:31;22.47;;;12.60;;
14167;SDS011;7163;50.626;12.922;2022-12-17T18:02:31;27.23;;;12.20;;
14167;SDS011;7163;50.626;12.922;2022-12-17T18:07:32;28.83;;;14.40;;
14167;SDS011;7163;50.626;12.922;2022-12-17T18:12:33;25.17;;;12.97;;
14167;SDS011;7163;50.626;12.922;2022-12-17T18:17:52;23.73;;;12.70;;
14167;SDS011;7163;50.626;12.922;2022-12-17T18:22:52;22.63;;;11.37;;
14167;SDS011;7163;50.626;12.922;2022-12-17T18:27:53;24.07;;;13.03;;
14167;SDS011;7163;50.626;12.922;2022-12-17T18:32:53;29.77;;;13.80;;
14167;SDS011;7163;50.626;12.922;2022-12-17T18:37:54;25.67;;;12.90;;
14167;SDS011;7163;50.626;12.922;2022-12-17T18:42:54;48.17;;;19.87;;
14167;SDS011;7163;50.626;12.922;2022-12-17T18:48:13;24.60;;;13.00;;
14167;SDS011;7163;50.626;12.922;2022-12-17T18:53:14;26.10;;;13.57;;
14167;SDS011;7163;50.626;12.922;2022-12-17T18:58:14;28.07;;;14.50;;
14167;SDS011;7163;50.626;12.922;2022-12-17T19:03:15;26.67;;;12.87;;
14167;SDS011;7163;50.626;12.922;2022-12-17T19:08:15;24.13;;;13.00;;
14167;SDS011;7163;50.626;12.922;2022-12-17T19:13:16;28.33;;;11.83;;
14167;SDS011;7163;50.626;12.922;2022-12-17T19:18:19;18.57;;;11.23;;
14167;SDS011;7163;50.626;12.922;2022-12-17T19:23:20;25.93;;;13.90;;
14167;SDS011;7163;50.626;12.922;2022-12-17T19:28:21;26.63;;;12.77;;
14167;SDS011;7163;50.626;12.922;2022-12-17T19:33:22;32.00;;;15.00;;
14167;SDS011;7163;50.626;12.922;2022-12-17T19:38:22;30.33;;;14.87;;
14167;SDS011;7163;50.626;12.922;2022-12-17T19:43:23;34.77;;;15.00;;
14167;SDS011;7163;50.626;12.922;2022-12-17T19:48:23;32.67;;;14.33;;
14167;SDS011;7163;50.626;12.922;2022-12-17T19:53:24;21.53;;;12.40;;
14167;SDS011;7163;50.626;12.922;2022-12-17T19:58:26;19.37;;;11.80;;
14167;SDS011;7163;50.626;12.922;2022-12-17T20:03:27;22.17;;;10.07;;
14167;SDS011;7163;50.626;12.922;2022-12-17T20:08:27;15.93;;;9.23;;
14167;SDS011;7163;50.626;12.922;2022-12-17T20:13:28;21.10;;;8.67;;
14167;SDS011;7163;50.626;12.922;2022-12-17T20:18:29;16.23;;;9.33;;
14167;SDS011;7163;50.626;12.922;2022-12-17T20:23:31;16.60;;;8.67;;
14167;SDS011;7163;50.626;12.922;2022-12-17T20:28:32;18.87;;;9.73;;
14167;SDS011;7163;50.626;12.922;2022-12-17T20:33:33;17.23;;;9.53;;
14167;SDS011;7163;50.626;12.922;2022-12-17T20:38:34;16.03;;;8.60;;
14167;SDS011;7163;50.626;12.922;2022-12-17T20:43:35;15.53;;;9.07;;
14167;SDS011;7163;50.626;12.922;2022-12-17T20:48:36;19.03;;;9.50;;
14167;SDS011;7163;50.626;12.922;2022-12-17T20:53:37;17.03;;;9.07;;
14167;SDS011;7163;50.626;12.922;2022-12-17T20:58:38;14.90;;;8.50;;
14167;SDS011;7163;50.626;12.922;2022-12-17T21:03:40;18.10;;;8.73;;
14167;SDS011;7163;50.626;12.922;2022-12-17T21:08:41;18.37;;;8.57;;
14167;SDS011;7163;50.626;12.922;2022-12-17T21:13:43;16.40;;;9.73;;
14167;SDS011;7163;50.626;12.922;2022-12-17T21:18:44;18.67;;;10.40;;
14167;SDS011;7163;50.626;12.922;2022-12-17T21:23:45;18.73;;;8.97;;
14167;SDS011;7163;50.626;12.922;2022-12-17T21:28:47;13.87;;;7.43;;
14167;SDS011;7163;50.626;12.922;2022-12-17T21:33:50;11.03;;;7.40;;
14167;SDS011;7163;50.626;12.922;2022-12-17T21:38:52;10.50;;;7.93;;
14167;SDS011;7163;50.626;12.922;2022-12-17T21:43:56;13.10;;;8.43;;
14167;SDS011;7163;50.626;12.922;2022-12-17T21:48:59;11.50;;;7.57;;
14167;SDS011;7163;50.626;12.922;2022-12-17T21:54:00;13.33;;;7.60;;
14167;SDS011;7163;50.626;12.922;2022-12-17T21:59:02;9.23;;;7.60;;
14167;SDS011;7163;50.626;12.922;2022-12-17T22:04:03;9.53;;;7.17;;
14167;SDS011;7163;50.626;12.922;2022-12-17T22:09:04;7.90;;;6.90;;
14167;SDS011;7163;50.626;12.922;2022-12-17T22:14:05;9.50;;;6.43;;
14167;SDS011;7163;50.626;12.922;2022-12-17T22:19:09;10.80;;;6.87;;
14167;SDS011;7163;50.626;12.922;2022-12-17T22:24:21;15.53;;;6.97;;
14167;SDS011;7163;50.626;12.922;2022-12-17T22:29:22;9.53;;;8.23;;
14167;SDS011;7163;50.626;12.922;2022-12-17T22:34:41;7.10;;;6.27;;
14167;SDS011;7163;50.626;12.922;2022-12-17T22:39:43;6.50;;;5.90;;
14167;SDS011;7163;50.626;12.922;2022-12-17T22:44:45;6.93;;;6.20;;
14167;SDS011;7163;50.626;12.922;2022-12-17T22:49:45;7.90;;;6.50;;
14167;SDS011;7163;50.626;12.922;2022-12-17T22:54:46;11.17;;;7.17;;
14167;SDS011;7163;50.626;12.922;2022-12-17T22:59:47;10.90;;;7.07;;
14167;SDS011;7163;50.626;12.922;2022-12-17T23:04:47;6.57;;;5.97;;
14167;SDS011;7163;50.626;12.922;2022-12-17T23:09:48;6.00;;;5.40;;
14167;SDS011;7163;50.626;12.922;2022-12-17T23:14:48;7.40;;;5.70;;
14167;SDS011;7163;50.626;12.922;2022-12-17T23:19:49;6.33;;;5.73;;
14167;SDS011;7163;50.626;12.922;2022-12-17T23:24:52;5.53;;;5.10;;
14167;SDS011;7163;50.626;12.922;2022-12-17T23:29:52;7.37;;;6.60;;
14167;SDS011;7163;50.626;12.922;2022-12-17T23:34:53;7.60;;;5.87;;
14167;SDS011;7163;50.626;12.922;2022-12-17T23:39:53;7.23;;;6.30;;
14167;SDS011;7163;50.626;12.922;2022-12-17T23:44:54;8.63;;;5.70;;
14167;SDS011;7163;50.626;12.922;2022-12-17T23:49:54;7.57;;;6.07;;
14167;SDS011;7163;50.626;12.922;2022-12-17T23:54:55;6.50;;;5.90;;
14167;SDS011;7163;50.626;12.922;2022-12-17T23:59:56;6.30;;;5.70;;
